Time;durP1;ratioP1;P1;durP2;ratioP2;P2;SDS_P1;SDS_P2;PMS_P1;PMS_P2;Temp;Humidity;BMP_temperature;BMP_pressure;BME280_temperature;BME280_humidity;BME280_pressure;Samples;Min_cycle;Max_cycle;Signal;HPM_P1;HPM_P2
2021/07/22 00:02:24;;;;;;;13.52;8.05;;;15.30;99.90;;;;;;5005881;28;20500;-59
2021/07/22 00:04:50;;;;;;;12.75;8.75;;;15.20;99.90;;;;;;5006324;28;20042;-60
2021/07/22 00:07:15;;;;;;;12.38;7.70;;;15.20;99.90;;;;;;5011227;28;20709;-62
2021/07/22 00:09:41;;;;;;;13.32;7.97;;;15.10;99.90;;;;;;4991546;28;20057;-62
2021/07/22 00:12:11;;;;;;;13.95;7.72;;;15.10;99.90;;;;;;5002483;28;20029;-62
2021/07/22 00:14:38;;;;;;;13.15;7.57;;;15.10;99.90;;;;;;4997275;28;20026;-62
2021/07/22 00:17:04;;;;;;;16.95;8.30;;;15.10;99.90;;;;;;4996142;28;20033;-63
2021/07/22 00:19:30;;;;;;;14.27;7.93;;;15.10;99.90;;;;;;5000081;28;20678;-61
2021/07/22 00:21:58;;;;;;;15.73;6.95;;;15.10;99.90;;;;;;4997043;28;20034;-61
2021/07/22 00:24:27;;;;;;;12.52;6.88;;;15.10;99.90;;;;;;5008588;28;20383;-62
2021/07/22 00:26:53;;;;;;;12.95;8.00;;;15.10;99.90;;;;;;5004888;28;20034;-62
2021/07/22 00:29:19;;;;;;;12.32;7.00;;;15.20;99.90;;;;;;5006210;28;20058;-61
2021/07/22 00:31:45;;;;;;;9.75;7.05;;;15.20;99.90;;;;;;5005874;28;20022;-62
2021/07/22 00:34:11;;;;;;;11.48;7.68;;;15.20;99.90;;;;;;5007591;28;20022;-61
2021/07/22 00:36:36;;;;;;;14.32;7.57;;;15.30;99.90;;;;;;5014269;28;20053;-63
2021/07/22 00:39:03;;;;;;;11.07;7.03;;;15.30;99.90;;;;;;5007790;28;20030;-62
2021/07/22 00:41:29;;;;;;;10.73;7.35;;;15.40;99.90;;;;;;5009885;28;20029;-59
2021/07/22 00:43:55;;;;;;;11.20;6.97;;;15.50;99.90;;;;;;5006981;28;20024;-62
2021/07/22 00:46:20;;;;;;;15.20;7.13;;;15.50;99.90;;;;;;5004388;28;20101;-62
2021/07/22 00:48:47;;;;;;;13.05;7.70;;;15.50;99.90;;;;;;5002763;28;20557;-62
2021/07/22 00:51:12;;;;;;;12.82;7.78;;;15.50;99.90;;;;;;5002980;28;20022;-62
2021/07/22 00:53:38;;;;;;;10.52;7.03;;;15.60;99.90;;;;;;5001775;28;20088;-62
2021/07/22 00:56:04;;;;;;;12.13;7.82;;;15.60;99.90;;;;;;5001664;28;20022;-62
2021/07/22 00:58:30;;;;;;;15.43;7.68;;;15.70;99.90;;;;;;4995183;28;20553;-62
2021/07/22 01:00:56;;;;;;;11.25;7.88;;;15.70;99.90;;;;;;5001073;28;20026;-63
2021/07/22 01:03:21;;;;;;;9.05;6.57;;;15.70;99.90;;;;;;5004322;28;20117;-61
2021/07/22 01:05:47;;;;;;;9.90;6.90;;;15.70;99.90;;;;;;5004739;28;20133;-63
2021/07/22 01:08:12;;;;;;;12.52;7.22;;;15.80;99.90;;;;;;4994779;28;20030;-62
2021/07/22 01:10:38;;;;;;;12.30;6.53;;;15.80;99.90;;;;;;5001958;28;21831;-61
2021/07/22 01:13:04;;;;;;;10.15;7.72;;;15.90;99.90;;;;;;5001710;28;20106;-63
2021/07/22 01:15:31;;;;;;;12.80;7.80;;;15.80;99.90;;;;;;5004234;28;20022;-62
2021/07/22 01:17:56;;;;;;;14.65;6.93;;;15.90;99.90;;;;;;5004377;28;20045;-62
2021/07/22 01:20:27;;;;;;;12.70;7.20;;;15.90;99.90;;;;;;5001123;28;20030;-63
2021/07/22 01:22:54;;;;;;;13.13;6.95;;;15.80;99.90;;;;;;5006440;28;20034;-61
2021/07/22 01:25:21;;;;;;;11.70;6.30;;;15.80;99.90;;;;;;5008612;28;20426;-62
2021/07/22 01:27:47;;;;;;;13.82;6.80;;;15.80;99.90;;;;;;4999577;28;20030;-62
2021/07/22 01:30:13;;;;;;;12.52;6.82;;;15.70;99.90;;;;;;5006580;28;20049;-62
2021/07/22 01:32:40;;;;;;;13.60;7.88;;;15.70;99.90;;;;;;5004627;28;20037;-62
2021/07/22 01:35:07;;;;;;;13.00;7.35;;;15.60;99.90;;;;;;5011027;28;20066;-62
2021/07/22 01:37:33;;;;;;;11.63;7.93;;;15.50;99.90;;;;;;5011114;28;20033;-62
2021/07/22 01:39:59;;;;;;;13.13;8.05;;;15.50;99.90;;;;;;5010531;28;20033;-62
2021/07/22 01:42:25;;;;;;;13.52;7.05;;;15.40;99.90;;;;;;5005543;28;20034;-60
2021/07/22 01:44:50;;;;;;;13.43;7.97;;;15.30;99.90;;;;;;5002426;28;20089;-61
2021/07/22 01:47:16;;;;;;;12.48;7.47;;;15.10;99.90;;;;;;5001151;28;20029;-61
2021/07/22 01:49:42;;;;;;;12.63;7.90;;;15.10;99.90;;;;;;5014416;28;20507;-62
2021/07/22 01:52:07;;;;;;;17.58;9.45;;;15.00;99.90;;;;;;5012842;28;20487;-62
2021/07/22 01:54:33;;;;;;;18.67;8.52;;;14.90;99.90;;;;;;5007729;28;20795;-63
2021/07/22 01:57:00;;;;;;;11.43;7.97;;;14.80;99.90;;;;;;5003510;28;20468;-62
2021/07/22 01:59:35;;;;;;;16.23;8.48;;;14.70;99.90;;;;;;5002008;28;20384;-62
2021/07/22 02:02:04;;;;;;;14.85;9.10;;;14.70;99.90;;;;;;5005609;28;20033;-63
2021/07/22 02:04:31;;;;;;;11.80;7.93;;;14.60;99.90;;;;;;5008678;28;20025;-63
2021/07/22 02:06:56;;;;;;;14.90;8.05;;;14.60;99.90;;;;;;5007361;28;20041;-62
2021/07/22 02:09:22;;;;;;;13.18;7.72;;;14.60;99.90;;;;;;5012849;28;20048;-63
2021/07/22 02:11:48;;;;;;;13.25;7.78;;;14.60;99.90;;;;;;5000169;28;20097;-61
2021/07/22 02:14:14;;;;;;;15.38;8.23;;;14.50;99.90;;;;;;4999534;28;20487;-61
2021/07/22 02:16:40;;;;;;;11.82;8.18;;;14.60;99.90;;;;;;5011820;28;20053;-62
2021/07/22 02:19:05;;;;;;;17.08;7.97;;;14.60;99.90;;;;;;5007307;28;20039;-62
2021/07/22 02:21:31;;;;;;;18.58;8.60;;;14.60;99.90;;;;;;5001272;28;20088;-62
2021/07/22 02:23:57;;;;;;;15.63;8.00;;;14.60;99.90;;;;;;5008783;28;20026;-62
2021/07/22 02:26:22;;;;;;;13.77;8.18;;;14.70;99.90;;;;;;5009464;28;20033;-61
2021/07/22 02:28:49;;;;;;;13.65;8.52;;;14.70;99.90;;;;;;5006878;28;20380;-62
2021/07/22 02:31:15;;;;;;;14.55;7.90;;;14.70;99.90;;;;;;5006822;28;20506;-63
2021/07/22 02:33:41;;;;;;;11.52;7.88;;;14.70;99.90;;;;;;5007888;28;20105;-62
2021/07/22 02:36:06;;;;;;;12.93;7.72;;;14.70;99.90;;;;;;5007049;28;20105;-62
2021/07/22 02:38:32;;;;;;;15.88;8.82;;;14.70;99.90;;;;;;5008403;28;20515;-62
2021/07/22 02:40:57;;;;;;;13.30;8.65;;;14.70;99.90;;;;;;5010834;28;20030;-61
2021/07/22 02:43:23;;;;;;;13.00;8.18;;;14.60;99.90;;;;;;5003004;28;20045;-63
2021/07/22 02:45:48;;;;;;;15.48;8.15;;;14.60;99.90;;;;;;5007825;28;20029;-62
2021/07/22 02:48:14;;;;;;;18.75;9.15;;;14.60;99.90;;;;;;5009548;28;20037;-63
2021/07/22 02:50:39;;;;;;;11.35;7.32;;;14.50;99.90;;;;;;5012030;28;20128;-62
2021/07/22 02:53:05;;;;;;;15.35;8.48;;;14.50;99.90;;;;;;5000674;28;20030;-62
2021/07/22 02:55:31;;;;;;;12.23;8.05;;;14.40;99.90;;;;;;5010453;28;20080;-61
2021/07/22 02:58:03;;;;;;;13.32;7.95;;;14.40;99.90;;;;;;5009276;28;20064;-62
2021/07/22 03:00:29;;;;;;;13.57;8.18;;;14.40;99.90;;;;;;5011958;28;20196;-61
2021/07/22 03:02:54;;;;;;;14.50;9.10;;;14.40;99.90;;;;;;5012936;28;20112;-62
2021/07/22 03:05:20;;;;;;;17.23;9.40;;;14.40;99.90;;;;;;4999547;28;20164;-61
2021/07/22 03:07:46;;;;;;;12.55;8.10;;;14.40;99.90;;;;;;5008083;28;20107;-62
2021/07/22 03:10:11;;;;;;;15.43;8.30;;;14.40;99.90;;;;;;5009682;28;20054;-63
2021/07/22 03:12:37;;;;;;;15.77;8.20;;;14.40;99.90;;;;;;5003409;28;20496;-61
2021/07/22 03:15:03;;;;;;;12.00;7.95;;;14.30;99.90;;;;;;5003743;28;20030;-62
2021/07/22 03:17:28;;;;;;;13.93;8.43;;;14.30;99.90;;;;;;5000849;28;20041;-62
2021/07/22 03:19:54;;;;;;;13.57;8.55;;;14.20;99.90;;;;;;5005461;28;20022;-61
2021/07/22 03:22:19;;;;;;;12.48;8.38;;;14.20;99.90;;;;;;5006162;28;20488;-61
2021/07/22 03:24:46;;;;;;;16.73;7.95;;;14.10;99.90;;;;;;5004340;28;20034;-62
2021/07/22 03:27:12;;;;;;;11.30;7.57;;;14.10;99.90;;;;;;5008565;28;20034;-61
2021/07/22 03:29:37;;;;;;;15.52;7.82;;;14.10;99.90;;;;;;5011831;28;20507;-62
2021/07/22 03:32:03;;;;;;;14.35;7.93;;;14.00;99.90;;;;;;5000066;28;20033;-62
2021/07/22 03:34:28;;;;;;;13.68;8.25;;;13.90;99.90;;;;;;5001579;28;20030;-60
2021/07/22 03:36:54;;;;;;;13.32;7.68;;;13.90;99.90;;;;;;5008980;28;20037;-63
2021/07/22 03:39:19;;;;;;;13.55;8.32;;;13.90;99.90;;;;;;5006677;28;20023;-62
2021/07/22 03:41:48;;;;;;;17.20;9.27;;;13.90;99.90;;;;;;5009618;28;20057;-62
2021/07/22 03:44:15;;;;;;;13.82;7.90;;;13.80;99.90;;;;;;5006929;28;20030;-60
2021/07/22 03:46:40;;;;;;;14.20;8.75;;;13.80;99.90;;;;;;4997131;28;20113;-60
2021/07/22 03:49:06;;;;;;;11.70;8.73;;;13.80;99.90;;;;;;5002541;28;20153;-61
2021/07/22 03:51:32;;;;;;;14.43;8.60;;;13.70;99.90;;;;;;5005709;28;20108;-61
2021/07/22 03:53:57;;;;;;;13.60;9.43;;;13.70;99.90;;;;;;5008160;28;20148;-62
2021/07/22 03:56:25;;;;;;;11.77;8.70;;;13.80;99.90;;;;;;5007884;28;20406;-63
2021/07/22 03:58:53;;;;;;;15.45;8.57;;;13.80;99.90;;;;;;5010032;28;20054;-62
2021/07/22 04:01:18;;;;;;;15.90;9.55;;;13.80;99.90;;;;;;5002641;28;20026;-63
2021/07/22 04:03:44;;;;;;;28.08;9.48;;;13.80;99.90;;;;;;5010500;28;20037;-62
2021/07/22 04:06:11;;;;;;;17.05;8.73;;;13.90;99.90;;;;;;5004107;28;20048;-62
2021/07/22 04:08:37;;;;;;;15.85;8.93;;;13.90;99.90;;;;;;5009478;28;20407;-62
2021/07/22 04:11:03;;;;;;;15.27;8.77;;;14.00;99.90;;;;;;5008134;28;20036;-60
2021/07/22 04:13:28;;;;;;;12.48;7.70;;;14.10;99.90;;;;;;5003702;28;20026;-62
2021/07/22 04:15:54;;;;;;;13.90;8.55;;;14.10;99.90;;;;;;5009220;28;20495;-62
2021/07/22 04:18:19;;;;;;;16.77;9.35;;;14.20;99.90;;;;;;5007634;28;20021;-62
2021/07/22 04:20:45;;;;;;;17.27;9.00;;;14.20;99.90;;;;;;5006014;28;20600;-62
2021/07/22 04:23:11;;;;;;;17.42;9.05;;;14.30;99.90;;;;;;5006849;28;20093;-62
2021/07/22 04:25:37;;;;;;;12.80;9.38;;;14.40;99.90;;;;;;5007583;28;20492;-61
2021/07/22 04:28:02;;;;;;;16.02;8.25;;;14.50;99.90;;;;;;5004510;28;20041;-61
2021/07/22 04:30:28;;;;;;;16.58;8.43;;;14.50;99.90;;;;;;5005677;28;20111;-63
2021/07/22 04:32:57;;;;;;;14.88;9.30;;;14.60;99.90;;;;;;5000573;28;20431;-62
2021/07/22 04:35:23;;;;;;;20.73;10.07;;;14.60;99.90;;;;;;5008155;28;20037;-63
2021/07/22 04:37:48;;;;;;;15.45;8.95;;;14.70;99.90;;;;;;5005918;28;20487;-62
2021/07/22 04:40:14;;;;;;;13.60;8.93;;;15.00;99.90;;;;;;5008465;28;20513;-63
2021/07/22 04:42:39;;;;;;;12.20;7.57;;;15.50;99.90;;;;;;5008296;28;20044;-62
2021/07/22 04:45:05;;;;;;;12.55;7.72;;;15.90;99.90;;;;;;4975497;28;20117;-63
2021/07/22 04:47:31;;;;;;;12.05;8.00;;;16.70;99.90;;;;;;5004427;28;20095;-63
2021/07/22 04:49:57;;;;;;;9.15;6.88;;;17.50;99.90;;;;;;5001281;28;20037;-61
2021/07/22 04:52:22;;;;;;;15.75;9.07;;;18.10;99.90;;;;;;5007347;28;20093;-62
2021/07/22 04:54:48;;;;;;;12.38;7.55;;;18.60;99.90;;;;;;5006020;28;20037;-63
2021/07/22 04:57:13;;;;;;;9.98;7.43;;;18.90;99.90;;;;;;5007995;28;20030;-60
2021/07/22 04:59:39;;;;;;;12.38;7.53;;;18.80;99.90;;;;;;5007842;28;20037;-59
2021/07/22 05:02:05;;;;;;;15.13;8.65;;;18.40;99.90;;;;;;5012108;28;20042;-61
2021/07/22 05:04:30;;;;;;;14.75;8.05;;;18.10;99.90;;;;;;5005589;28;20041;-60
2021/07/22 05:06:57;;;;;;;14.80;7.65;;;18.30;99.90;;;;;;5004013;28;20030;-63
2021/07/22 05:09:23;;;;;;;12.48;8.02;;;18.50;99.90;;;;;;5005249;28;20041;-63
2021/07/22 05:11:49;;;;;;;11.07;6.80;;;18.40;99.90;;;;;;5005286;28;20392;-63
2021/07/22 05:14:14;;;;;;;10.75;7.30;;;18.40;99.90;;;;;;5009268;28;20025;-62
2021/07/22 05:16:40;;;;;;;11.93;7.18;;;18.70;99.90;;;;;;5003713;28;20120;-62
2021/07/22 05:19:05;;;;;;;9.02;6.85;;;18.80;99.90;;;;;;5006408;28;20554;-63
2021/07/22 05:21:31;;;;;;;12.57;7.40;;;18.70;99.90;;;;;;5007423;28;20026;-64
2021/07/22 05:23:56;;;;;;;12.13;7.03;;;18.70;99.90;;;;;;5004919;28;20053;-63
2021/07/22 05:26:22;;;;;;;8.75;7.32;;;18.60;99.90;;;;;;5004378;28;20030;-64
2021/07/22 05:28:47;;;;;;;12.98;7.90;;;19.00;99.90;;;;;;5003331;28;20500;-63
2021/07/22 05:31:13;;;;;;;13.38;7.68;;;19.40;99.90;;;;;;5006463;28;20077;-63
2021/07/22 05:33:40;;;;;;;9.43;6.93;;;19.10;99.90;;;;;;5000441;28;20026;-62
2021/07/22 05:36:09;;;;;;;13.25;7.28;;;18.70;99.90;;;;;;5002054;28;20507;-62
2021/07/22 05:38:36;;;;;;;9.20;6.72;;;19.30;99.90;;;;;;5008420;28;20026;-63
2021/07/22 05:41:06;;;;;;;11.18;8.02;;;19.70;99.90;;;;;;5012388;28;20037;-62
2021/07/22 05:43:33;;;;;;;12.15;8.10;;;20.70;99.90;;;;;;4997928;28;20092;-60
2021/07/22 05:45:58;;;;;;;12.57;6.90;;;21.40;99.90;;;;;;5011947;28;20057;-61
2021/07/22 05:48:24;;;;;;;16.85;6.95;;;22.00;99.80;;;;;;5008496;28;20611;-61
2021/07/22 05:50:50;;;;;;;10.82;5.93;;;22.40;98.60;;;;;;5006247;28;20057;-61
2021/07/22 05:53:16;;;;;;;12.93;6.93;;;23.10;97.10;;;;;;5007155;28;20399;-61
2021/07/22 05:55:42;;;;;;;8.77;6.80;;;23.80;95.90;;;;;;5008713;28;20034;-61
2021/07/22 05:58:07;;;;;;;9.82;6.88;;;24.40;94.80;;;;;;5007847;28;20402;-61
2021/07/22 06:00:33;;;;;;;11.30;7.03;;;24.20;94.20;;;;;;4999255;28;20045;-60
2021/07/22 06:02:59;;;;;;;14.77;7.78;;;25.10;93.50;;;;;;5002425;28;20037;-61
2021/07/22 06:05:25;;;;;;;10.48;7.53;;;25.90;91.00;;;;;;4996967;28;20029;-62
2021/07/22 06:07:50;;;;;;;12.02;7.32;;;25.90;90.60;;;;;;4997766;28;20479;-61
2021/07/22 06:10:16;;;;;;;11.60;7.15;;;26.50;90.10;;;;;;5009229;28;20036;-61
2021/07/22 06:12:43;;;;;;;9.73;7.22;;;26.20;88.60;;;;;;5009106;28;20057;-62
2021/07/22 06:15:11;;;;;;;9.77;7.10;;;26.70;87.60;;;;;;5006921;28;20036;-61
2021/07/22 06:17:37;;;;;;;14.27;7.13;;;27.50;85.60;;;;;;5000998;28;20025;-63
2021/07/22 06:20:04;;;;;;;14.15;7.03;;;27.30;83.10;;;;;;5009840;28;20037;-61
2021/07/22 06:22:30;;;;;;;10.20;7.88;;;28.10;82.90;;;;;;5007850;28;20033;-59
2021/07/22 06:24:56;;;;;;;10.60;6.88;;;28.00;80.90;;;;;;5010608;28;20900;-62
2021/07/22 06:27:22;;;;;;;9.68;7.82;;;28.40;81.40;;;;;;5006126;28;20034;-61
2021/07/22 06:29:47;;;;;;;11.48;7.47;;;29.60;76.40;;;;;;5008096;28;20484;-62
2021/07/22 06:32:13;;;;;;;10.50;7.15;;;28.60;76.60;;;;;;5002283;28;20054;-63
2021/07/22 06:34:38;;;;;;;12.65;7.85;;;28.90;76.80;;;;;;5004648;28;20083;-62
2021/07/22 06:37:04;;;;;;;15.63;7.82;;;29.10;75.20;;;;;;5008080;28;20065;-62
2021/07/22 06:39:35;;;;;;;9.73;6.60;;;28.70;76.70;;;;;;5005152;28;20507;-63
2021/07/22 06:42:00;;;;;;;9.77;6.63;;;28.90;77.10;;;;;;5007554;28;20049;-62
2021/07/22 06:44:28;;;;;;;14.10;7.30;;;29.40;75.30;;;;;;4989601;28;20092;-63
2021/07/22 06:46:54;;;;;;;10.90;6.93;;;29.40;74.70;;;;;;5006675;28;20076;-63
2021/07/22 06:49:19;;;;;;;8.80;6.22;;;29.40;73.80;;;;;;5006894;28;20053;-62
2021/07/22 06:51:45;;;;;;;7.35;6.15;;;29.90;74.50;;;;;;5012164;28;20487;-63
2021/07/22 06:54:12;;;;;;;13.52;6.50;;;31.80;69.90;;;;;;5007725;28;20442;-63
2021/07/22 06:56:37;;;;;;;10.38;7.10;;;31.80;68.40;;;;;;5010298;28;20048;-62
2021/07/22 06:59:03;;;;;;;15.07;7.28;;;31.60;66.40;;;;;;5003981;28;20065;-63
2021/07/22 07:01:28;;;;;;;8.40;6.55;;;31.10;68.80;;;;;;5006812;28;20502;-63
2021/07/22 07:03:54;;;;;;;8.32;6.50;;;31.00;67.60;;;;;;5011993;28;20037;-63
2021/07/22 07:06:19;;;;;;;7.93;6.57;;;31.90;66.00;;;;;;5006488;28;20025;-63
2021/07/22 07:08:45;;;;;;;8.77;6.60;;;31.40;65.40;;;;;;4996251;28;20395;-63
2021/07/22 07:11:10;;;;;;;8.60;6.70;;;31.10;66.00;;;;;;5011920;28;20073;-63
2021/07/22 07:13:36;;;;;;;7.50;6.57;;;31.80;65.90;;;;;;5003082;28;20550;-63
2021/07/22 07:16:06;;;;;;;9.48;7.10;;;32.90;64.90;;;;;;5005213;28;20105;-62
2021/07/22 07:18:31;;;;;;;10.80;7.32;;;31.80;65.80;;;;;;5005358;28;20384;-62
2021/07/22 07:20:57;;;;;;;8.07;6.60;;;31.30;66.10;;;;;;5006436;28;20033;-62
2021/07/22 07:23:23;;;;;;;10.02;7.05;;;31.10;66.80;;;;;;5008045;28;20034;-61
2021/07/22 07:25:48;;;;;;;10.68;6.43;;;31.40;65.00;;;;;;5002406;28;20037;-63
2021/07/22 07:28:14;;;;;;;7.95;6.45;;;32.30;65.60;;;;;;5004687;28;20037;-63
2021/07/22 07:30:42;;;;;;;10.75;7.15;;;34.20;62.40;;;;;;5006624;28;20038;-62
2021/07/22 07:33:08;;;;;;;8.60;6.78;;;34.40;59.20;;;;;;5005620;28;20033;-62
2021/07/22 07:35:33;;;;;;;19.63;6.40;;;34.30;60.40;;;;;;5009147;28;20022;-63
2021/07/22 07:37:59;;;;;;;10.60;6.93;;;34.30;59.70;;;;;;5001869;28;20033;-62
2021/07/22 07:40:25;;;;;;;9.43;6.47;;;33.90;58.70;;;;;;5002839;28;20022;-62
2021/07/22 07:42:50;;;;;;;12.18;6.55;;;34.00;56.20;;;;;;5005762;28;20026;-62
2021/07/22 07:45:16;;;;;;;7.70;6.50;;;33.80;59.90;;;;;;4985015;28;20481;-63
2021/07/22 07:47:41;;;;;;;9.35;6.50;;;34.10;57.70;;;;;;5003035;28;20048;-62
2021/07/22 07:50:08;;;;;;;9.55;6.63;;;33.90;57.60;;;;;;5002487;28;20026;-62
2021/07/22 07:52:36;;;;;;;9.32;6.30;;;33.10;59.70;;;;;;5003725;28;20439;-63
2021/07/22 07:55:06;;;;;;;10.02;6.65;;;33.70;58.60;;;;;;5003809;28;20031;-63
2021/07/22 07:57:32;;;;;;;7.88;5.75;;;32.80;59.80;;;;;;5006371;28;20022;-62
2021/07/22 07:59:58;;;;;;;10.45;6.50;;;32.10;61.30;;;;;;4999991;28;20033;-62
2021/07/22 08:02:23;;;;;;;10.07;6.43;;;32.60;60.40;;;;;;4999953;28;20038;-62
2021/07/22 08:04:49;;;;;;;10.93;5.93;;;33.60;59.80;;;;;;4993841;28;20476;-63
2021/07/22 08:07:14;;;;;;;8.63;5.90;;;32.50;60.60;;;;;;4995548;28;20018;-63
2021/07/22 08:09:40;;;;;;;7.43;5.93;;;32.30;59.90;;;;;;4998318;28;20060;-63
2021/07/22 08:12:06;;;;;;;7.15;5.90;;;33.10;60.80;;;;;;4996446;28;20369;-63
2021/07/22 08:14:36;;;;;;;7.50;6.32;;;33.20;59.60;;;;;;4995570;28;20108;-63
2021/07/22 08:17:03;;;;;;;10.70;5.90;;;32.70;58.20;;;;;;4993978;28;20022;-63
2021/07/22 08:19:29;;;;;;;7.97;5.95;;;33.10;59.40;;;;;;5012356;28;20125;-63
2021/07/22 08:21:54;;;;;;;7.60;5.72;;;33.10;60.60;;;;;;4992935;28;20109;-63
2021/07/22 08:24:20;;;;;;;7.32;5.97;;;33.40;59.40;;;;;;4992780;28;20034;-63
2021/07/22 08:26:45;;;;;;;9.43;6.35;;;33.20;60.40;;;;;;4991545;28;20030;-63
2021/07/22 08:29:11;;;;;;;7.07;5.57;;;32.30;59.10;;;;;;4993981;28;20045;-61
2021/07/22 08:31:37;;;;;;;7.10;6.38;;;31.80;60.10;;;;;;4998150;28;20077;-62
2021/07/22 08:34:03;;;;;;;7.03;6.20;;;31.40;61.90;;;;;;5010443;28;20022;-63
2021/07/22 08:36:28;;;;;;;11.52;6.40;;;31.10;62.50;;;;;;5003590;28;20542;-62
2021/07/22 08:38:54;;;;;;;9.95;6.45;;;30.60;61.50;;;;;;5008349;28;20022;-63
2021/07/22 08:41:20;;;;;;;10.80;6.60;;;31.00;62.50;;;;;;4992183;28;20480;-63
2021/07/22 08:43:50;;;;;;;11.05;6.90;;;30.70;62.40;;;;;;5004195;28;20033;-62
2021/07/22 08:46:17;;;;;;;9.73;5.95;;;31.10;62.20;;;;;;4988640;28;20042;-61
2021/07/22 08:48:43;;;;;;;9.23;6.05;;;31.40;62.50;;;;;;5011767;28;20141;-63
2021/07/22 08:51:08;;;;;;;7.85;6.57;;;31.10;62.20;;;;;;4989757;28;20113;-62
2021/07/22 08:53:35;;;;;;;8.65;6.68;;;31.30;62.50;;;;;;5003760;28;20121;-63
2021/07/22 08:56:02;;;;;;;12.07;7.05;;;31.40;60.60;;;;;;4999060;28;20065;-63
2021/07/22 08:58:29;;;;;;;8.02;6.28;;;31.40;59.60;;;;;;4994397;28;20041;-62
2021/07/22 09:00:59;;;;;;;11.35;7.28;;;32.40;59.20;;;;;;5003115;28;21571;-63
2021/07/22 09:03:24;;;;;;;7.38;6.15;;;32.70;59.00;;;;;;4995263;28;20034;-62
2021/07/22 09:05:50;;;;;;;8.48;6.53;;;33.80;57.20;;;;;;5000623;28;20056;-62
2021/07/22 09:08:15;;;;;;;8.48;6.57;;;34.70;57.10;;;;;;5010268;28;20112;-62
2021/07/22 09:10:41;;;;;;;11.43;7.28;;;34.10;57.80;;;;;;4996223;28;20064;-62
2021/07/22 09:13:22;;;;;;;9.13;7.10;;;33.90;58.10;;;;;;5001433;28;20506;-63
2021/07/22 09:15:52;;;;;;;10.33;6.97;;;33.70;59.30;;;;;;4992632;28;20507;-62
2021/07/22 09:18:35;;;;;;;10.13;6.03;;;33.10;57.70;;;;;;4989802;28;20129;-62
2021/07/22 09:21:23;;;;;;;12.95;6.13;;;33.50;57.90;;;;;;5003020;28;20022;-62
2021/07/22 09:24:09;;;;;;;9.77;6.43;;;33.80;59.10;;;;;;4989806;28;20026;-63
2021/07/22 09:26:36;;;;;;;7.13;5.93;;;33.60;56.70;;;;;;4991449;28;20539;-63
2021/07/22 09:29:05;;;;;;;9.50;6.50;;;32.90;57.40;;;;;;5004927;28;20022;-63
2021/07/22 09:31:31;;;;;;;7.53;5.85;;;32.90;56.80;;;;;;5006798;28;20525;-62
2021/07/22 09:33:56;;;;;;;7.20;5.70;;;32.70;56.80;;;;;;5027517;28;20033;-63
2021/07/22 09:36:28;;;;;;;7.53;6.60;;;33.80;57.10;;;;;;5006302;28;20114;-63
2021/07/22 09:39:14;;;;;;;7.57;6.38;;;33.70;54.80;;;;;;5011384;28;20026;-63
2021/07/22 09:41:40;;;;;;;9.85;6.55;;;34.00;56.90;;;;;;5009930;28;20423;-63
2021/07/22 09:44:05;;;;;;;12.43;6.30;;;33.60;56.60;;;;;;5012217;28;20026;-63
2021/07/22 09:46:41;;;;;;;8.75;6.20;;;33.40;55.80;;;;;;4991429;28;20026;-63
2021/07/22 09:49:10;;;;;;;8.02;5.90;;;32.80;54.40;;;;;;5011354;28;20033;-63
2021/07/22 09:51:37;;;;;;;6.20;5.28;;;32.10;57.30;;;;;;5001742;28;20026;-63
2021/07/22 09:54:07;;;;;;;9.57;6.22;;;31.70;56.60;;;;;;5010750;28;20029;-62
2021/07/22 09:56:37;;;;;;;10.65;5.97;;;31.30;58.20;;;;;;5001196;28;20034;-62
2021/07/22 09:59:03;;;;;;;7.72;6.13;;;30.20;57.50;;;;;;5005466;28;20034;-61
2021/07/22 10:01:40;;;;;;;10.52;6.03;;;30.10;59.80;;;;;;4999184;28;20033;-62
2021/07/22 10:04:07;;;;;;;9.82;6.50;;;29.50;61.20;;;;;;4998199;28;20066;-62
2021/07/22 10:06:35;;;;;;;7.47;6.10;;;29.00;61.30;;;;;;4996599;28;20031;-62
2021/07/22 10:09:03;;;;;;;7.10;6.18;;;28.60;60.80;;;;;;4995133;28;20507;-62
2021/07/22 10:11:28;;;;;;;12.70;5.82;;;28.60;59.80;;;;;;4997896;28;20045;-62
2021/07/22 10:13:54;;;;;;;9.60;5.70;;;28.70;59.00;;;;;;4997780;28;20368;-62
2021/07/22 10:16:21;;;;;;;12.13;6.13;;;28.90;59.50;;;;;;4997272;28;20053;-62
2021/07/22 10:18:49;;;;;;;9.90;6.13;;;28.90;61.90;;;;;;5005392;28;20434;-61
2021/07/22 10:21:15;;;;;;;8.73;6.03;;;28.90;61.50;;;;;;5003794;28;20037;-61
2021/07/22 10:23:42;;;;;;;10.35;5.47;;;28.50;62.90;;;;;;5008817;28;20026;-62
2021/07/22 10:26:08;;;;;;;8.20;6.05;;;28.70;64.90;;;;;;5000212;28;20093;-62
2021/07/22 10:28:34;;;;;;;9.15;5.90;;;29.20;63.70;;;;;;5003308;28;20038;-60
2021/07/22 10:31:05;;;;;;;9.55;5.93;;;29.30;60.50;;;;;;4994846;28;20026;-62
2021/07/22 10:33:34;;;;;;;6.85;5.72;;;30.00;57.50;;;;;;4998525;28;20029;-62
2021/07/22 10:36:00;;;;;;;9.52;6.03;;;30.30;57.50;;;;;;4996720;28;20105;-62
2021/07/22 10:38:46;;;;;;;6.72;5.60;;;30.80;57.70;;;;;;5002570;28;20129;-62
2021/07/22 10:41:38;;;;;;;8.63;6.63;;;30.60;56.70;;;;;;4995429;28;20026;-63
2021/07/22 10:44:24;;;;;;;7.72;5.55;;;29.40;60.80;;;;;;4996598;28;20025;-62
2021/07/22 10:46:53;;;;;;;10.95;6.07;;;29.90;61.00;;;;;;4985643;28;20129;-62
2021/07/22 10:49:19;;;;;;;8.38;5.43;;;29.90;58.20;;;;;;5010033;28;20148;-62
2021/07/22 10:51:45;;;;;;;10.48;6.30;;;29.60;58.90;;;;;;5004439;28;20106;-62
2021/07/22 10:54:40;;;;;;;7.60;6.00;;;29.80;59.20;;;;;;5014771;28;20028;-62
2021/07/22 10:57:06;;;;;;;7.35;6.38;;;30.20;58.70;;;;;;5002408;28;20061;-63
2021/07/22 10:59:55;;;;;;;8.10;6.03;;;29.90;58.20;;;;;;5008022;28;20022;-62
2021/07/22 11:02:40;;;;;;;7.25;5.78;;;30.00;57.10;;;;;;5009078;28;20517;-61
2021/07/22 11:05:05;;;;;;;7.47;5.78;;;29.60;60.20;;;;;;5005003;28;20129;-61
2021/07/22 11:07:31;;;;;;;8.73;6.53;;;28.90;58.30;;;;;;5006158;28;20531;-63
2021/07/22 11:09:58;;;;;;;10.27;5.85;;;29.00;55.90;;;;;;5011648;28;20100;-62
2021/07/22 11:12:42;;;;;;;10.15;6.20;;;29.00;59.40;;;;;;5004782;28;20018;-63
2021/07/22 11:15:37;;;;;;;8.35;6.35;;;29.10;60.00;;;;;;5003564;28;20022;-61
2021/07/22 11:18:44;;;;;;;8.98;5.97;;;29.20;60.50;;;;;;5004832;28;20593;-61
2021/07/22 11:21:29;;;;;;;12.80;5.95;;;30.00;59.20;;;;;;5005764;28;20034;-61
2021/07/22 11:24:03;;;;;;;7.40;6.00;;;30.10;59.20;;;;;;5000111;28;20113;-62
2021/07/22 11:26:35;;;;;;;9.32;5.53;;;30.20;58.90;;;;;;5009605;28;20034;-62
2021/07/22 11:29:05;;;;;;;8.10;5.82;;;30.00;59.40;;;;;;5007072;28;20100;-61
2021/07/22 11:31:32;;;;;;;7.22;6.30;;;30.10;61.70;;;;;;5000475;28;20022;-62
2021/07/22 11:34:02;;;;;;;8.57;5.50;;;30.20;56.10;;;;;;5006725;28;20058;-63
2021/07/22 11:36:30;;;;;;;7.55;6.00;;;30.10;58.50;;;;;;5003109;28;20042;-62
2021/07/22 11:38:55;;;;;;;8.52;5.80;;;29.80;56.80;;;;;;5009553;28;20081;-61
2021/07/22 11:41:22;;;;;;;9.20;6.38;;;29.90;56.30;;;;;;5010521;28;20061;-62
2021/07/22 11:44:10;;;;;;;9.65;6.05;;;29.60;56.00;;;;;;5010031;28;20033;-62
2021/07/22 11:46:41;;;;;;;8.05;6.00;;;29.50;58.80;;;;;;4984291;28;20041;-62
2021/07/22 11:49:17;;;;;;;7.53;6.40;;;29.80;59.30;;;;;;5010644;28;20064;-62
2021/07/22 11:51:48;;;;;;;8.32;5.85;;;29.90;55.90;;;;;;4998276;28;20030;-62
2021/07/22 11:54:17;;;;;;;9.60;6.47;;;29.80;56.90;;;;;;5000527;28;20100;-62
2021/07/22 11:56:43;;;;;;;7.65;6.30;;;30.10;55.60;;;;;;4997384;28;20097;-62
2021/07/22 11:59:10;;;;;;;8.60;6.38;;;30.00;55.30;;;;;;5005604;28;20013;-62
2021/07/22 12:01:50;;;;;;;8.02;6.03;;;29.70;56.30;;;;;;4997316;28;20033;-61
2021/07/22 12:04:23;;;;;;;7.88;6.22;;;29.60;56.50;;;;;;5001557;28;20262;-62
2021/07/22 12:06:50;;;;;;;8.13;6.25;;;29.20;55.60;;;;;;4997182;28;20073;-63
2021/07/22 12:09:16;;;;;;;7.97;6.50;;;28.80;56.10;;;;;;4999373;28;20034;-62
2021/07/22 12:11:54;;;;;;;7.43;6.20;;;29.00;58.00;;;;;;5001996;28;20026;-62
2021/07/22 12:14:25;;;;;;;10.50;6.63;;;29.30;55.40;;;;;;4998644;28;20408;-62
2021/07/22 12:16:52;;;;;;;9.80;7.07;;;29.10;58.90;;;;;;4995220;28;20495;-62
2021/07/22 12:19:25;;;;;;;9.90;6.70;;;29.00;60.20;;;;;;4999536;28;20054;-61
2021/07/22 12:22:19;;;;;;;7.35;6.10;;;29.00;59.30;;;;;;4993358;28;20093;-62
2021/07/22 12:24:45;;;;;;;9.15;6.80;;;29.10;59.30;;;;;;4999224;28;20026;-62
2021/07/22 12:27:29;;;;;;;10.70;6.53;;;29.50;60.00;;;;;;4994859;28;20056;-62
2021/07/22 12:29:55;;;;;;;8.05;6.38;;;29.50;57.60;;;;;;4997075;28;20022;-61
2021/07/22 12:32:21;;;;;;;9.18;6.90;;;29.40;57.60;;;;;;5000497;28;20030;-62
2021/07/22 12:34:46;;;;;;;8.73;6.22;;;29.50;58.90;;;;;;4998009;28;20031;-63
2021/07/22 12:37:12;;;;;;;7.63;5.88;;;29.30;56.50;;;;;;5000582;28;20023;-62
2021/07/22 12:39:37;;;;;;;7.88;6.10;;;29.00;58.20;;;;;;4996237;28;20026;-62
2021/07/22 12:42:11;;;;;;;7.88;6.38;;;29.30;59.60;;;;;;4991823;28;20703;-62
2021/07/22 12:44:46;;;;;;;9.27;6.63;;;29.30;57.20;;;;;;4999988;28;20033;-62